createdAt,value
2022-08-05T00:01:35.908Z,11.60
2022-08-05T00:04:19.224Z,12.27
2022-08-05T00:06:47.540Z,9.77
2022-08-05T00:09:23.367Z,11.55
2022-08-05T00:11:55.898Z,11.13
2022-08-05T00:14:28.974Z,10.80
2022-08-05T00:16:58.289Z,11.88
2022-08-05T00:19:33.432Z,10.85
2022-08-05T00:22:04.305Z,11.00
2022-08-05T00:24:31.612Z,11.65
2022-08-05T00:26:59.865Z,11.93
2022-08-05T00:29:37.729Z,10.80
2022-08-05T00:32:12.410Z,10.68
2022-08-05T00:34:53.258Z,13.20
2022-08-05T00:37:21.960Z,10.80
2022-08-05T00:39:58.468Z,11.02
2022-08-05T00:42:34.084Z,14.07
2022-08-05T00:45:01.971Z,11.57
2022-08-05T00:47:31.772Z,12.30
2022-08-05T00:50:18.557Z,11.40
2022-08-05T00:55:14.915Z,10.68
2022-08-05T00:57:58.089Z,11.52
2022-08-05T01:00:28.566Z,12.85
2022-08-05T01:02:56.872Z,12.10
2022-08-05T01:05:24.305Z,13.32
2022-08-05T01:08:30.788Z,12.07
2022-08-05T01:10:52.150Z,11.45
2022-08-05T01:13:58.303Z,10.70
2022-08-05T01:16:40.885Z,13.13
2022-08-05T01:19:56.151Z,12.88
2022-08-05T01:22:59.098Z,13.02
2022-08-05T01:26:02.616Z,11.43
2022-08-05T01:28:57.491Z,12.10
2022-08-05T01:31:51.574Z,12.70
2022-08-05T01:34:33.083Z,12.13
2022-08-05T01:37:25.031Z,11.55
2022-08-05T01:39:59.122Z,13.45
2022-08-05T01:42:29.768Z,12.13
2022-08-05T01:44:59.192Z,11.98
2022-08-05T01:47:32.550Z,11.93
2022-08-05T01:50:15.190Z,12.43
2022-08-05T01:52:50.096Z,11.25
2022-08-05T01:55:20.831Z,12.77
2022-08-05T01:58:11.958Z,12.40
2022-08-05T02:00:43.069Z,12.25
2022-08-05T02:03:34.203Z,12.50
2022-08-05T02:06:33.531Z,11.52
2022-08-05T02:08:57.801Z,12.48
2022-08-05T02:11:33.659Z,12.05
2022-08-05T02:14:12.982Z,12.27
2022-08-05T02:16:52.458Z,12.40
2022-08-05T02:19:34.446Z,11.93
2022-08-05T02:22:25.677Z,13.00
2022-08-05T02:25:08.794Z,13.23
2022-08-05T02:27:59.671Z,12.55
2022-08-05T02:30:38.791Z,13.95
2022-08-05T02:33:24.482Z,12.98
2022-08-05T02:36:05.387Z,13.20
2022-08-05T02:38:35.502Z,12.90
2022-08-05T02:41:06.462Z,14.80
2022-08-05T02:44:02.486Z,12.85
2022-08-05T02:46:34.416Z,13.52
2022-08-05T02:49:04.224Z,14.52
2022-08-05T02:52:03.781Z,14.20
2022-08-05T02:54:35.755Z,14.27
2022-08-05T02:57:09.805Z,13.38
2022-08-05T02:59:56.322Z,14.32
2022-08-05T03:02:29.097Z,14.85
2022-08-05T03:04:58.137Z,14.88
2022-08-05T03:08:01.930Z,13.85
2022-08-05T03:10:24.520Z,14.10
2022-08-05T03:12:52.118Z,14.30
2022-08-05T03:15:21.128Z,14.80
2022-08-05T03:17:54.216Z,14.30
2022-08-05T03:20:23.655Z,14.93
2022-08-05T03:22:52.261Z,14.38
2022-08-05T03:26:02.652Z,14.70
2022-08-05T03:28:09.284Z,14.63
2022-08-05T03:30:38.320Z,15.00
2022-08-05T03:33:08.500Z,14.52
2022-08-05T03:35:40.509Z,15.85
2022-08-05T03:38:14.511Z,13.60
2022-08-05T03:40:45.253Z,15.68
2022-08-05T03:44:08.633Z,14.75
2022-08-05T03:46:04.901Z,15.70
2022-08-05T03:48:35.091Z,14.35
2022-08-05T03:52:38.329Z,14.50
2022-08-05T03:55:06.959Z,15.38
2022-08-05T03:57:29.006Z,15.52
2022-08-05T04:00:08.848Z,15.45
2022-08-05T04:02:52.002Z,14.75
2022-08-05T04:05:27.891Z,14.95
2022-08-05T04:08:05.760Z,15.07
2022-08-05T04:10:51.044Z,14.38
2022-08-05T04:13:27.717Z,14.48
2022-08-05T04:16:14.375Z,13.98
2022-08-05T04:18:41.521Z,13.82
2022-08-05T04:21:11.147Z,12.43
2022-08-05T04:26:25.680Z,12.18
2022-08-05T04:29:07.143Z,12.35
2022-08-05T04:31:38.417Z,12.48
2022-08-05T04:34:19.726Z,12.50
2022-08-05T04:37:00.813Z,10.80
2022-08-05T04:39:30.075Z,11.18
2022-08-05T04:41:57.613Z,11.32
2022-08-05T04:44:29.509Z,11.45
2022-08-05T04:46:58.988Z,11.50
2022-08-05T04:49:38.446Z,11.20
2022-08-05T04:52:14.278Z,11.38
2022-08-05T04:54:44.484Z,12.23
2022-08-05T04:57:11.315Z,11.25
2022-08-05T04:59:39.045Z,11.52
2022-08-05T05:02:36.230Z,10.68
2022-08-05T05:05:02.344Z,11.35
2022-08-05T05:07:32.677Z,11.02
2022-08-05T05:10:02.259Z,12.63
2022-08-05T05:12:30.403Z,11.20
2022-08-05T05:14:57.290Z,11.13
2022-08-05T05:17:55.719Z,12.23
2022-08-05T05:20:12.887Z,11.50
2022-08-05T05:22:41.132Z,10.47
2022-08-05T05:25:16.110Z,10.57
2022-08-05T05:27:53.689Z,10.60
2022-08-05T05:30:29.173Z,10.60
2022-08-05T05:33:00.659Z,10.10
2022-08-05T05:35:34.449Z,18.42
2022-08-05T05:38:09.096Z,9.90
2022-08-05T05:40:42.534Z,9.35
2022-08-05T05:43:15.257Z,10.77
2022-08-05T05:45:49.556Z,9.63
2022-08-05T05:48:16.341Z,9.80
2022-08-05T05:50:44.219Z,10.40
2022-08-05T05:53:22.147Z,8.27
2022-08-05T05:55:52.413Z,8.63
2022-08-05T05:58:31.484Z,8.83
2022-08-05T06:01:12.368Z,8.10
2022-08-05T06:04:01.038Z,8.82
2022-08-05T06:06:30.821Z,8.13
2022-08-05T06:08:58.759Z,8.20
2022-08-05T06:11:26.029Z,8.10
2022-08-05T06:13:55.411Z,9.25
2022-08-05T06:16:30.124Z,9.02
2022-08-05T06:19:01.223Z,8.50
2022-08-05T06:21:36.131Z,7.30
2022-08-05T06:24:11.543Z,7.82
2022-08-05T06:26:45.902Z,7.13
2022-08-05T06:29:25.525Z,7.60
2022-08-05T06:32:21.043Z,7.90
2022-08-05T06:34:48.525Z,7.20
2022-08-05T06:37:56.163Z,7.28
2022-08-05T06:40:08.073Z,6.15
2022-08-05T06:42:34.964Z,7.05
2022-08-05T06:45:05.506Z,5.88
2022-08-05T06:48:44.209Z,5.88
2022-08-05T06:50:22.198Z,5.65
2022-08-05T06:52:58.736Z,6.07
2022-08-05T06:55:36.441Z,6.72
2022-08-05T06:58:19.892Z,5.30
2022-08-05T07:00:51.526Z,6.65
2022-08-05T07:03:18.428Z,6.30
2022-08-05T07:05:46.356Z,5.68
2022-08-05T07:08:13.720Z,7.05
2022-08-05T07:10:52.502Z,7.03
2022-08-05T07:13:59.871Z,5.90
2022-08-05T07:17:59.256Z,4.93
2022-08-05T07:22:29.064Z,5.15
2022-08-05T07:25:09.541Z,6.22
2022-08-05T07:27:57.064Z,5.97
2022-08-05T07:30:32.068Z,5.40
2022-08-05T07:33:00.934Z,5.28
2022-08-05T07:36:03.728Z,6.30
2022-08-05T07:38:32.483Z,5.18
2022-08-05T07:42:07.481Z,4.60
2022-08-05T07:43:50.471Z,4.93
2022-08-05T07:46:20.745Z,5.20
2022-08-05T07:49:02.217Z,4.68
2022-08-05T07:51:40.293Z,4.47
2022-08-05T07:54:09.841Z,4.65
2022-08-05T07:57:00.162Z,5.20
2022-08-05T07:59:38.625Z,5.13
2022-08-05T08:02:16.809Z,4.82
2022-08-05T08:04:46.650Z,4.50
2022-08-05T08:07:15.058Z,5.05
2022-08-05T08:09:42.616Z,5.00
2022-08-05T08:12:30.606Z,4.63
2022-08-05T08:14:57.378Z,4.72
2022-08-05T08:17:31.719Z,4.60
2022-08-05T08:20:21.382Z,4.13
2022-08-05T08:22:54.714Z,4.22
2022-08-05T08:25:27.134Z,5.70
2022-08-05T08:28:18.542Z,4.50
2022-08-05T08:30:48.040Z,3.92
2022-08-05T08:33:19.300Z,5.32
2022-08-05T08:35:53.778Z,5.90
2022-08-05T08:38:32.143Z,4.43
2022-08-05T08:41:08.652Z,7.28
2022-08-05T08:45:20.238Z,5.25
2022-08-05T08:46:27.569Z,4.40
2022-08-05T08:49:07.487Z,4.53
2022-08-05T08:52:05.596Z,4.07
2022-08-05T08:54:36.264Z,4.30
2022-08-05T08:57:11.607Z,4.40
2022-08-05T08:59:41.947Z,4.28
2022-08-05T09:02:16.666Z,4.50
2022-08-05T09:04:58.271Z,4.50
2022-08-05T09:07:39.938Z,4.57
2022-08-05T09:10:20.299Z,5.32
2022-08-05T09:12:50.900Z,6.22
2022-08-05T09:15:18.289Z,4.45
2022-08-05T09:17:49.856Z,4.20
2022-08-05T09:20:36.778Z,4.68
2022-08-05T09:23:07.933Z,4.60
2022-08-05T09:26:00.818Z,5.40
2022-08-05T09:28:32.420Z,4.82
2022-08-05T09:31:23.255Z,5.68
2022-08-05T09:34:05.680Z,4.75
2022-08-05T09:39:39.222Z,4.30
2022-08-05T09:42:20.183Z,4.00
2022-08-05T09:44:56.003Z,4.07
2022-08-05T09:47:48.379Z,3.72
2022-08-05T09:50:18.166Z,3.72
2022-08-05T09:53:01.783Z,4.60
2022-08-05T09:55:57.917Z,4.30
2022-08-05T09:58:22.686Z,4.45
2022-08-05T10:01:15.405Z,4.53
2022-08-05T10:04:10.462Z,5.45
2022-08-05T10:06:40.696Z,5.00
2022-08-05T10:09:25.167Z,6.63
2022-08-05T10:11:56.231Z,4.80
2022-08-05T10:14:26.705Z,4.80
2022-08-05T10:16:56.571Z,5.13
2022-08-05T10:20:02.762Z,4.93
2022-08-05T10:24:57.537Z,6.35
2022-08-05T10:27:26.039Z,8.20
2022-08-05T10:31:20.479Z,9.00
2022-08-05T10:33:01.661Z,5.40
2022-08-05T10:35:33.674Z,6.50
2022-08-05T10:38:08.773Z,6.07
2022-08-05T10:40:49.911Z,6.20
2022-08-05T10:43:57.939Z,6.00
2022-08-05T10:49:16.432Z,5.88
2022-08-05T10:52:00.404Z,6.43
2022-08-05T10:55:02.126Z,6.25
2022-08-05T10:57:31.966Z,6.68
2022-08-05T11:00:16.112Z,5.68
2022-08-05T11:03:26.006Z,5.53
2022-08-05T11:06:15.048Z,6.53
2022-08-05T11:09:10.888Z,6.53
2022-08-05T11:11:52.568Z,6.28
2022-08-05T11:14:57.766Z,6.53
2022-08-05T11:18:00.053Z,6.07
2022-08-05T11:20:39.124Z,6.60
2022-08-05T11:24:05.717Z,6.70
2022-08-05T11:26:28.836Z,6.47
2022-08-05T11:29:06.626Z,7.53
2022-08-05T11:31:56.778Z,6.75
2022-08-05T11:34:51.420Z,6.05
2022-08-05T11:38:26.403Z,6.35
2022-08-05T11:41:03.577Z,6.28
2022-08-05T11:44:06.328Z,6.15
2022-08-05T11:46:57.946Z,6.75
2022-08-05T11:49:24.967Z,7.97
2022-08-05T11:51:53.776Z,6.00
2022-08-05T11:57:08.723Z,6.00
2022-08-05T11:59:50.835Z,6.20
2022-08-05T12:02:23.868Z,8.25
2022-08-05T12:04:59.568Z,6.50
2022-08-05T12:08:02.713Z,6.43
2022-08-05T12:10:20.178Z,6.38
2022-08-05T12:12:59.260Z,6.57
2022-08-05T12:15:37.962Z,6.00
2022-08-05T12:18:10.886Z,7.50
2022-08-05T12:20:38.979Z,7.93
2022-08-05T12:23:10.496Z,7.05
2022-08-05T12:25:56.772Z,7.00
2022-08-05T12:28:38.001Z,5.78
2022-08-05T12:31:05.905Z,5.70
2022-08-05T12:33:37.222Z,9.10
2022-08-05T12:36:09.580Z,5.70
2022-08-05T12:38:42.130Z,5.60
2022-08-05T12:41:12.856Z,6.00
2022-08-05T12:43:50.866Z,6.05
2022-08-05T12:46:31.982Z,6.07
2022-08-05T12:49:05.876Z,5.65
2022-08-05T12:52:14.331Z,6.40
2022-08-05T12:54:41.888Z,6.10
2022-08-05T12:57:13.001Z,5.80
2022-08-05T13:01:58.135Z,6.85
2022-08-05T13:02:41.716Z,5.88
2022-08-05T13:05:12.745Z,5.65
2022-08-05T13:08:00.264Z,5.88
2022-08-05T13:10:31.784Z,6.28
2022-08-05T13:13:01.056Z,6.00
2022-08-05T13:15:35.761Z,5.85
2022-08-05T13:18:08.660Z,6.20
2022-08-05T13:20:40.450Z,5.75
2022-08-05T13:23:07.818Z,5.90
2022-08-05T13:25:52.301Z,5.68
2022-08-05T13:28:22.387Z,4.90
2022-08-05T13:30:51.116Z,5.40
2022-08-05T13:34:21.356Z,5.97
2022-08-05T13:36:06.945Z,5.57
2022-08-05T13:38:42.036Z,4.75
2022-08-05T13:41:13.181Z,5.35
2022-08-05T13:43:45.266Z,5.45
2022-08-05T13:46:50.557Z,8.50
2022-08-05T13:49:12.954Z,8.50
2022-08-05T13:51:45.833Z,6.68
2022-08-05T13:54:15.405Z,5.75
2022-08-05T13:59:19.317Z,5.90
2022-08-05T14:01:56.744Z,5.47
2022-08-05T14:04:51.924Z,5.40
2022-08-05T14:08:03.040Z,8.50
2022-08-05T14:10:28.696Z,7.75
2022-08-05T14:12:57.122Z,7.63
2022-08-05T14:16:08.863Z,8.20
2022-08-05T14:18:17.370Z,7.20
2022-08-05T14:20:48.832Z,11.05
2022-08-05T14:23:19.240Z,10.35
2022-08-05T14:25:59.127Z,9.10
2022-08-05T14:28:30.435Z,5.85
2022-08-05T14:30:59.067Z,5.55
2022-08-05T14:33:26.273Z,5.67
2022-08-05T14:35:54.523Z,7.18
2022-08-05T14:38:31.884Z,5.45
2022-08-05T14:41:07.671Z,5.10
2022-08-05T14:43:57.516Z,5.78
2022-08-05T14:46:30.698Z,4.70
2022-08-05T14:49:06.325Z,6.05
2022-08-05T14:51:36.346Z,5.10
2022-08-05T14:54:27.411Z,6.55
2022-08-05T14:56:54.643Z,8.25
2022-08-05T14:59:22.060Z,5.30
2022-08-05T15:01:49.956Z,5.03
2022-08-05T15:04:22.283Z,5.32
2022-08-05T15:06:51.003Z,4.35
2022-08-05T15:09:51.305Z,5.30
2022-08-05T15:12:11.587Z,8.75
2022-08-05T15:14:49.625Z,5.43
2022-08-05T15:17:46.469Z,4.35
2022-08-05T15:20:17.109Z,5.28
2022-08-05T15:22:54.081Z,5.75
2022-08-05T15:25:40.980Z,4.85
2022-08-05T15:28:13.329Z,5.50
2022-08-05T15:30:43.636Z,4.93
2022-08-05T15:33:12.746Z,6.15
2022-08-05T15:35:59.512Z,4.70
2022-08-05T15:38:35.599Z,5.30
2022-08-05T15:41:23.120Z,6.43
2022-08-05T15:43:50.455Z,5.15
2022-08-05T15:46:19.976Z,8.50
2022-08-05T15:48:53.012Z,6.22
2022-08-05T15:52:12.887Z,5.13
2022-08-05T15:54:16.427Z,11.02
2022-08-05T15:56:43.620Z,6.88
2022-08-05T15:59:20.285Z,4.43
2022-08-05T16:01:52.944Z,5.10
2022-08-05T16:04:25.681Z,5.00
2022-08-05T16:06:56.527Z,4.90
2022-08-05T16:09:25.426Z,4.60
2022-08-05T16:11:54.018Z,4.95
2022-08-05T16:14:22.403Z,4.70
2022-08-05T16:16:49.670Z,4.88
2022-08-05T16:19:19.169Z,5.60
2022-08-05T16:22:03.991Z,7.82
2022-08-05T16:24:41.007Z,5.10
2022-08-05T16:27:47.245Z,15.67
2022-08-05T16:30:08.436Z,5.70
2022-08-05T16:32:50.621Z,4.90
2022-08-05T16:35:17.558Z,5.05
2022-08-05T16:38:15.678Z,5.47
2022-08-05T16:40:55.682Z,5.20
2022-08-05T16:43:28.462Z,4.75
2022-08-05T16:46:07.765Z,5.05
2022-08-05T16:48:42.816Z,4.72
2022-08-05T16:51:10.785Z,4.80
2022-08-05T16:54:06.139Z,5.15
2022-08-05T16:56:28.042Z,5.40
2022-08-05T16:58:55.156Z,5.23
2022-08-05T17:01:22.182Z,5.20
2022-08-05T17:03:52.085Z,4.93
2022-08-05T17:06:19.573Z,4.88
2022-08-05T17:08:53.000Z,4.93
2022-08-05T17:11:23.466Z,8.55
2022-08-05T17:14:05.498Z,5.78
2022-08-05T17:16:38.035Z,4.55
2022-08-05T17:19:07.619Z,21.10
2022-08-05T17:21:37.236Z,6.05
2022-08-05T17:24:28.008Z,10.98
2022-08-05T17:26:57.138Z,5.95
2022-08-05T17:29:33.772Z,5.20
2022-08-05T17:32:16.998Z,7.85
2022-08-05T17:34:47.624Z,9.43
2022-08-05T17:37:40.362Z,7.53
2022-08-05T17:40:10.822Z,6.43
2022-08-05T17:42:42.962Z,5.93
2022-08-05T17:45:21.092Z,5.67
2022-08-05T17:47:53.995Z,6.18
2022-08-05T17:50:28.504Z,7.30
2022-08-05T17:52:59.317Z,6.55
2022-08-05T17:55:34.205Z,7.68
2022-08-05T17:58:06.938Z,7.82
2022-08-05T18:00:36.191Z,7.00
2022-08-05T18:03:07.902Z,6.70
2022-08-05T18:05:36.223Z,6.30
2022-08-05T18:08:03.675Z,6.40
2022-08-05T18:10:33.407Z,5.45
2022-08-05T18:13:01.958Z,6.57
2022-08-05T18:15:31.084Z,6.65
2022-08-05T18:18:05.713Z,6.50
2022-08-05T18:20:37.958Z,6.25
2022-08-05T18:23:09.021Z,7.43
2022-08-05T18:25:39.106Z,6.43
2022-08-05T18:28:07.357Z,6.32
2022-08-05T18:30:40.165Z,5.93
2022-08-05T18:33:07.681Z,7.72
2022-08-05T18:36:00.122Z,5.85
2022-08-05T18:38:26.093Z,8.45
2022-08-05T18:41:55.434Z,6.53
2022-08-05T18:43:43.259Z,6.15
2022-08-05T18:46:20.008Z,6.93
2022-08-05T18:48:52.624Z,6.63
2022-08-05T18:52:04.189Z,6.78
2022-08-05T18:57:02.192Z,6.68
2022-08-05T18:59:43.324Z,6.80
2022-08-05T19:02:28.183Z,7.40
2022-08-05T19:05:03.030Z,6.63
2022-08-05T19:07:46.534Z,6.57
2022-08-05T19:10:17.724Z,6.38
2022-08-05T19:12:46.141Z,6.40
2022-08-05T19:15:56.743Z,7.10
2022-08-05T19:18:09.138Z,6.88
2022-08-05T19:20:37.330Z,6.55
2022-08-05T19:23:08.724Z,6.70
2022-08-05T19:26:01.676Z,14.02
2022-08-05T19:28:30.851Z,7.97
2022-08-05T19:30:57.934Z,6.80
2022-08-05T19:33:34.021Z,6.75
2022-08-05T19:36:09.090Z,6.43
2022-08-05T19:38:36.755Z,7.00
2022-08-05T19:41:06.833Z,6.88
2022-08-05T19:44:07.046Z,6.57
2022-08-05T19:46:29.513Z,7.05
2022-08-05T19:49:01.127Z,6.65
2022-08-05T19:52:05.012Z,6.85
2022-08-05T19:54:27.075Z,7.45
2022-08-05T19:56:59.383Z,7.05
2022-08-05T19:59:56.036Z,6.15
2022-08-05T20:02:15.144Z,6.87
2022-08-05T20:04:46.048Z,28.35
2022-08-05T20:07:15.368Z,10.25
2022-08-05T20:09:53.573Z,7.68
2022-08-05T20:12:23.486Z,7.28
2022-08-05T20:14:52.431Z,7.07
2022-08-05T20:17:23.394Z,7.20
2022-08-05T20:19:56.596Z,7.57
2022-08-05T20:22:24.363Z,7.35
2022-08-05T20:24:53.946Z,6.63
2022-08-05T20:27:26.380Z,7.22
2022-08-05T20:29:58.729Z,7.03
2022-08-05T20:32:27.148Z,7.40
2022-08-05T20:34:54.588Z,7.23
2022-08-05T20:38:05.962Z,6.78
2022-08-05T20:40:09.715Z,6.82
2022-08-05T20:42:37.790Z,7.88
2022-08-05T20:45:08.244Z,7.25
2022-08-05T20:47:35.124Z,7.28
2022-08-05T20:50:07.738Z,6.90
2022-08-05T20:52:35.423Z,7.55
2022-08-05T20:55:55.401Z,6.70
2022-08-05T20:57:52.076Z,6.90
2022-08-05T21:00:44.370Z,12.82
2022-08-05T21:03:13.351Z,8.95
2022-08-05T21:05:53.859Z,7.70
2022-08-05T21:08:26.548Z,6.20
2022-08-05T21:11:11.661Z,7.88
2022-08-05T21:13:47.420Z,7.03
2022-08-05T21:16:22.381Z,9.23
2022-08-05T21:18:56.112Z,8.10
2022-08-05T21:21:27.387Z,7.72
2022-08-05T21:24:12.971Z,7.35
2022-08-05T21:26:41.468Z,6.90
2022-08-05T21:29:12.529Z,7.45
2022-08-05T21:31:43.380Z,7.90
2022-08-05T21:34:10.449Z,7.60
2022-08-05T21:36:38.508Z,8.23
2022-08-05T21:39:05.522Z,7.53
2022-08-05T21:44:04.417Z,11.70
2022-08-05T21:46:36.959Z,8.43
2022-08-05T21:49:07.315Z,7.50
2022-08-05T21:52:26.822Z,7.80
2022-08-05T21:54:30.757Z,7.88
2022-08-05T21:57:29.229Z,7.80
2022-08-05T22:00:03.020Z,8.32
2022-08-05T22:02:31.762Z,7.70
2022-08-05T22:04:58.722Z,8.27
2022-08-05T22:07:39.956Z,8.57
2022-08-05T22:10:15.133Z,8.43
2022-08-05T22:12:44.906Z,7.95
2022-08-05T22:16:00.569Z,8.98
2022-08-05T22:18:05.431Z,10.50
2022-08-05T22:20:32.571Z,7.88
2022-08-05T22:23:21.307Z,7.85
2022-08-05T22:26:09.866Z,16.65
2022-08-05T22:28:38.734Z,9.35
2022-08-05T22:31:06.254Z,7.80
2022-08-05T22:33:57.026Z,8.27
2022-08-05T22:36:23.886Z,9.15
2022-08-05T22:38:51.713Z,9.00
2022-08-05T22:44:08.582Z,8.15
2022-08-05T22:46:39.640Z,7.35
2022-08-05T22:49:12.514Z,8.23
2022-08-05T22:52:04.937Z,8.55
2022-08-05T22:54:33.803Z,8.55
2022-08-05T22:57:00.761Z,9.20
2022-08-05T22:59:43.895Z,8.68
2022-08-05T23:02:22.896Z,8.32
2022-08-05T23:04:57.935Z,9.40
2022-08-05T23:07:29.177Z,8.68
2022-08-05T23:10:01.428Z,9.13
2022-08-05T23:12:32.907Z,8.85
2022-08-05T23:17:37.846Z,8.50
2022-08-05T23:20:23.574Z,17.08
2022-08-05T23:22:55.560Z,14.15
2022-08-05T23:25:52.253Z,8.90
2022-08-05T23:28:11.070Z,8.52
2022-08-05T23:30:43.486Z,8.77
2022-08-05T23:33:25.731Z,10.77
2022-08-05T23:36:03.643Z,8.52
2022-08-05T23:38:31.652Z,8.85
2022-08-05T23:40:58.616Z,9.52
2022-08-05T23:43:37.305Z,10.20
2022-08-05T23:46:21.392Z,9.65
2022-08-05T23:49:00.895Z,8.52
2022-08-05T23:51:54.026Z,8.77
2022-08-05T23:54:36.487Z,8.82
2022-08-05T23:57:06.252Z,9.30
